sensor_id;sensor_type;location;lat;lon;timestamp;temperature;humidity
68257;DHT22;55069;51.568;4.656;2023-07-31T00:02:15;16.65;92.10
68257;DHT22;55069;51.568;4.656;2023-07-31T00:04:41;16.63;92.01
68257;DHT22;55069;51.568;4.656;2023-07-31T00:07:06;16.63;91.85
68257;DHT22;55069;51.568;4.656;2023-07-31T00:09:33;16.65;91.63
68257;DHT22;55069;51.568;4.656;2023-07-31T00:11:59;16.65;91.75
68257;DHT22;55069;51.568;4.656;2023-07-31T00:14:24;16.68;91.29
68257;DHT22;55069;51.568;4.656;2023-07-31T00:16:50;16.66;91.26
68257;DHT22;55069;51.568;4.656;2023-07-31T00:19:15;16.69;91.61
68257;DHT22;55069;51.568;4.656;2023-07-31T00:21:41;16.66;91.58
68257;DHT22;55069;51.568;4.656;2023-07-31T00:24:06;16.65;91.64
68257;DHT22;55069;51.568;4.656;2023-07-31T00:26:32;16.66;91.18
68257;DHT22;55069;51.568;4.656;2023-07-31T00:28:57;16.63;90.72
68257;DHT22;55069;51.568;4.656;2023-07-31T00:31:23;16.68;91.01
68257;DHT22;55069;51.568;4.656;2023-07-31T00:33:48;16.68;91.09
68257;DHT22;55069;51.568;4.656;2023-07-31T00:36:14;16.70;90.92
68257;DHT22;55069;51.568;4.656;2023-07-31T00:38:41;16.66;91.16
68257;DHT22;55069;51.568;4.656;2023-07-31T00:41:07;16.66;91.35
68257;DHT22;55069;51.568;4.656;2023-07-31T00:43:32;16.63;91.38
68257;DHT22;55069;51.568;4.656;2023-07-31T00:45:58;16.62;91.46
68257;DHT22;55069;51.568;4.656;2023-07-31T00:48:24;16.65;91.41
68257;DHT22;55069;51.568;4.656;2023-07-31T00:50:50;16.66;91.46
68257;DHT22;55069;51.568;4.656;2023-07-31T00:53:15;16.68;91.31
68257;DHT22;55069;51.568;4.656;2023-07-31T00:55:42;16.65;91.37
68257;DHT22;55069;51.568;4.656;2023-07-31T00:58:07;16.62;91.31
68257;DHT22;55069;51.568;4.656;2023-07-31T01:00:33;16.62;91.18
68257;DHT22;55069;51.568;4.656;2023-07-31T01:02:59;16.59;91.18
68257;DHT22;55069;51.568;4.656;2023-07-31T01:05:36;16.62;91.34
68257;DHT22;55069;51.568;4.656;2023-07-31T01:08:17;16.61;91.07
68257;DHT22;55069;51.568;4.656;2023-07-31T01:10:51;16.61;90.88
68257;DHT22;55069;51.568;4.656;2023-07-31T01:13:21;16.59;90.92
68257;DHT22;55069;51.568;4.656;2023-07-31T01:15:46;16.61;90.72
68257;DHT22;55069;51.568;4.656;2023-07-31T01:18:12;16.63;90.27
68257;DHT22;55069;51.568;4.656;2023-07-31T01:20:40;16.62;90.29
68257;DHT22;55069;51.568;4.656;2023-07-31T01:29:01;16.61;90.29
68257;DHT22;55069;51.568;4.656;2023-07-31T01:31:29;16.59;90.00
68257;DHT22;55069;51.568;4.656;2023-07-31T01:33:58;16.59;89.48
68257;DHT22;55069;51.568;4.656;2023-07-31T01:36:25;16.58;89.65
68257;DHT22;55069;51.568;4.656;2023-07-31T01:38:51;16.55;89.72
68257;DHT22;55069;51.568;4.656;2023-07-31T01:41:17;16.55;89.78
68257;DHT22;55069;51.568;4.656;2023-07-31T01:43:44;16.56;89.51
68257;DHT22;55069;51.568;4.656;2023-07-31T01:46:09;16.53;89.42
68257;DHT22;55069;51.568;4.656;2023-07-31T01:48:35;16.53;89.17
68257;DHT22;55069;51.568;4.656;2023-07-31T01:51:02;16.58;88.99
68257;DHT22;55069;51.568;4.656;2023-07-31T01:53:28;16.58;89.08
68257;DHT22;55069;51.568;4.656;2023-07-31T01:55:54;16.53;89.25
68257;DHT22;55069;51.568;4.656;2023-07-31T01:58:19;16.51;88.99
68257;DHT22;55069;51.568;4.656;2023-07-31T02:00:45;16.55;88.62
68257;DHT22;55069;51.568;4.656;2023-07-31T02:03:11;16.53;88.74
68257;DHT22;55069;51.568;4.656;2023-07-31T02:05:47;16.52;88.90
68257;DHT22;55069;51.568;4.656;2023-07-31T02:08:13;16.53;88.93
68257;DHT22;55069;51.568;4.656;2023-07-31T02:10:39;16.51;88.90
68257;DHT22;55069;51.568;4.656;2023-07-31T02:13:04;16.48;88.87
68257;DHT22;55069;51.568;4.656;2023-07-31T02:15:30;16.48;88.87
68257;DHT22;55069;51.568;4.656;2023-07-31T02:17:56;16.51;88.84
68257;DHT22;55069;51.568;4.656;2023-07-31T02:20:21;16.44;89.15
68257;DHT22;55069;51.568;4.656;2023-07-31T02:22:47;16.44;88.43
68257;DHT22;55069;51.568;4.656;2023-07-31T02:25:13;16.47;88.84
68257;DHT22;55069;51.568;4.656;2023-07-31T02:27:38;16.44;88.87
68257;DHT22;55069;51.568;4.656;2023-07-31T02:30:04;16.44;88.59
68257;DHT22;55069;51.568;4.656;2023-07-31T02:32:30;16.44;88.68
68257;DHT22;55069;51.568;4.656;2023-07-31T02:34:55;16.41;88.69
68257;DHT22;55069;51.568;4.656;2023-07-31T02:37:21;16.45;89.13
68257;DHT22;55069;51.568;4.656;2023-07-31T02:39:47;16.41;88.69
68257;DHT22;55069;51.568;4.656;2023-07-31T02:42:13;16.40;89.00
68257;DHT22;55069;51.568;4.656;2023-07-31T02:44:38;16.42;89.03
68257;DHT22;55069;51.568;4.656;2023-07-31T02:47:04;16.42;88.58
68257;DHT22;55069;51.568;4.656;2023-07-31T02:49:30;16.41;88.67
68257;DHT22;55069;51.568;4.656;2023-07-31T02:51:55;16.44;88.54
68257;DHT22;55069;51.568;4.656;2023-07-31T02:54:21;16.47;88.88
68257;DHT22;55069;51.568;4.656;2023-07-31T02:56:47;16.45;88.59
68257;DHT22;55069;51.568;4.656;2023-07-31T02:59:14;16.42;88.51
68257;DHT22;55069;51.568;4.656;2023-07-31T03:01:39;16.41;88.22
68257;DHT22;55069;51.568;4.656;2023-07-31T03:04:05;16.42;88.84
68257;DHT22;55069;51.568;4.656;2023-07-31T03:06:30;16.41;88.35
68257;DHT22;55069;51.568;4.656;2023-07-31T03:08:56;16.44;88.89
68257;DHT22;55069;51.568;4.656;2023-07-31T03:11:21;16.40;88.50
68257;DHT22;55069;51.568;4.656;2023-07-31T03:13:47;16.48;88.38
68257;DHT22;55069;51.568;4.656;2023-07-31T03:16:13;16.45;88.21
68257;DHT22;55069;51.568;4.656;2023-07-31T03:18:38;16.48;88.67
68257;DHT22;55069;51.568;4.656;2023-07-31T03:21:04;16.48;87.59
68257;DHT22;55069;51.568;4.656;2023-07-31T03:23:30;16.53;88.25
68257;DHT22;55069;51.568;4.656;2023-07-31T03:25:56;16.51;87.44
68257;DHT22;55069;51.568;4.656;2023-07-31T03:28:22;16.55;87.79
68257;DHT22;55069;51.568;4.656;2023-07-31T03:30:48;16.55;87.28
68257;DHT22;55069;51.568;4.656;2023-07-31T03:33:14;16.58;87.27
68257;DHT22;55069;51.568;4.656;2023-07-31T03:35:40;16.61;87.28
68257;DHT22;55069;51.568;4.656;2023-07-31T03:38:05;16.62;87.26
68257;DHT22;55069;51.568;4.656;2023-07-31T03:40:31;16.61;87.00
68257;DHT22;55069;51.568;4.656;2023-07-31T03:42:56;16.61;87.40
68257;DHT22;55069;51.568;4.656;2023-07-31T03:45:22;16.63;87.51
68257;DHT22;55069;51.568;4.656;2023-07-31T03:47:47;16.69;87.54
68257;DHT22;55069;51.568;4.656;2023-07-31T03:50:13;16.56;88.26
68257;DHT22;55069;51.568;4.656;2023-07-31T03:52:38;16.52;88.83
68257;DHT22;55069;51.568;4.656;2023-07-31T03:55:04;16.44;89.64
68257;DHT22;55069;51.568;4.656;2023-07-31T03:57:30;16.38;89.83
68257;DHT22;55069;51.568;4.656;2023-07-31T03:59:58;16.36;89.98
68257;DHT22;55069;51.568;4.656;2023-07-31T04:02:23;16.31;90.06
68257;DHT22;55069;51.568;4.656;2023-07-31T04:04:49;16.34;90.11
68257;DHT22;55069;51.568;4.656;2023-07-31T04:07:15;16.34;89.77
68257;DHT22;55069;51.568;4.656;2023-07-31T04:09:40;16.34;90.15
68257;DHT22;55069;51.568;4.656;2023-07-31T04:12:06;16.35;89.58
68257;DHT22;55069;51.568;4.656;2023-07-31T04:14:32;16.35;89.56
68257;DHT22;55069;51.568;4.656;2023-07-31T04:16:57;16.38;89.48
68257;DHT22;55069;51.568;4.656;2023-07-31T04:19:23;16.38;89.75
68257;DHT22;55069;51.568;4.656;2023-07-31T04:21:48;16.40;89.86
68257;DHT22;55069;51.568;4.656;2023-07-31T04:24:14;16.44;89.75
68257;DHT22;55069;51.568;4.656;2023-07-31T04:26:39;16.42;89.71
68257;DHT22;55069;51.568;4.656;2023-07-31T04:29:05;16.48;89.34
68257;DHT22;55069;51.568;4.656;2023-07-31T04:31:30;16.45;90.17
68257;DHT22;55069;51.568;4.656;2023-07-31T04:33:56;16.44;90.15
68257;DHT22;55069;51.568;4.656;2023-07-31T04:36:21;16.42;90.90
68257;DHT22;55069;51.568;4.656;2023-07-31T04:38:47;16.42;90.88
68257;DHT22;55069;51.568;4.656;2023-07-31T04:41:12;16.38;90.85
68257;DHT22;55069;51.568;4.656;2023-07-31T04:43:38;16.36;91.48
68257;DHT22;55069;51.568;4.656;2023-07-31T04:46:05;16.38;91.64
68257;DHT22;55069;51.568;4.656;2023-07-31T04:48:30;16.40;91.12
68257;DHT22;55069;51.568;4.656;2023-07-31T04:50:56;16.40;91.38
68257;DHT22;55069;51.568;4.656;2023-07-31T04:53:21;16.36;92.02
68257;DHT22;55069;51.568;4.656;2023-07-31T04:55:47;16.41;91.99
68257;DHT22;55069;51.568;4.656;2023-07-31T04:58:12;16.36;91.95
68257;DHT22;55069;51.568;4.656;2023-07-31T05:00:38;16.40;92.30
68257;DHT22;55069;51.568;4.656;2023-07-31T05:03:03;16.36;92.22
68257;DHT22;55069;51.568;4.656;2023-07-31T05:05:30;16.34;93.09
68257;DHT22;55069;51.568;4.656;2023-07-31T05:07:55;16.31;93.29
68257;DHT22;55069;51.568;4.656;2023-07-31T05:10:21;16.32;93.35
68257;DHT22;55069;51.568;4.656;2023-07-31T05:12:46;16.28;93.85
68257;DHT22;55069;51.568;4.656;2023-07-31T05:15:12;16.26;93.96
68257;DHT22;55069;51.568;4.656;2023-07-31T05:17:37;16.22;93.96
68257;DHT22;55069;51.568;4.656;2023-07-31T05:20:03;16.24;93.96
68257;DHT22;55069;51.568;4.656;2023-07-31T05:22:29;16.25;94.26
68257;DHT22;55069;51.568;4.656;2023-07-31T05:24:54;16.25;94.23
68257;DHT22;55069;51.568;4.656;2023-07-31T05:27:20;16.25;94.02
68257;DHT22;55069;51.568;4.656;2023-07-31T05:29:45;16.22;94.55
68257;DHT22;55069;51.568;4.656;2023-07-31T05:32:11;16.28;94.61
68257;DHT22;55069;51.568;4.656;2023-07-31T05:34:37;16.25;94.30
68257;DHT22;55069;51.568;4.656;2023-07-31T05:37:02;16.28;94.69
68257;DHT22;55069;51.568;4.656;2023-07-31T05:39:28;16.28;94.43
68257;DHT22;55069;51.568;4.656;2023-07-31T05:41:53;16.29;94.57
68257;DHT22;55069;51.568;4.656;2023-07-31T05:44:19;16.29;94.42
68257;DHT22;55069;51.568;4.656;2023-07-31T05:46:45;16.36;94.25
68257;DHT22;55069;51.568;4.656;2023-07-31T05:49:10;16.36;94.14
68257;DHT22;55069;51.568;4.656;2023-07-31T05:51:35;16.41;94.04
68257;DHT22;55069;51.568;4.656;2023-07-31T05:54:01;16.42;94.43
68257;DHT22;55069;51.568;4.656;2023-07-31T05:56:26;16.47;94.33
68257;DHT22;55069;51.568;4.656;2023-07-31T05:58:52;16.49;94.57
68257;DHT22;55069;51.568;4.656;2023-07-31T06:01:18;16.51;94.51
68257;DHT22;55069;51.568;4.656;2023-07-31T06:03:44;16.52;94.16
68257;DHT22;55069;51.568;4.656;2023-07-31T06:06:10;16.53;94.32
68257;DHT22;55069;51.568;4.656;2023-07-31T06:08:36;16.51;94.26
68257;DHT22;55069;51.568;4.656;2023-07-31T06:11:01;16.55;94.23
68257;DHT22;55069;51.568;4.656;2023-07-31T06:13:27;16.61;94.40
68257;DHT22;55069;51.568;4.656;2023-07-31T06:15:52;16.70;94.53
68257;DHT22;55069;51.568;4.656;2023-07-31T06:18:18;16.82;94.25
68257;DHT22;55069;51.568;4.656;2023-07-31T06:20:43;16.86;93.72
68257;DHT22;55069;51.568;4.656;2023-07-31T06:23:09;16.91;93.38
68257;DHT22;55069;51.568;4.656;2023-07-31T06:25:35;16.91;93.93
68257;DHT22;55069;51.568;4.656;2023-07-31T06:28:00;16.89;93.95
68257;DHT22;55069;51.568;4.656;2023-07-31T06:30:26;16.90;94.10
68257;DHT22;55069;51.568;4.656;2023-07-31T06:32:51;16.91;94.14
68257;DHT22;55069;51.568;4.656;2023-07-31T06:35:17;16.93;93.70
68257;DHT22;55069;51.568;4.656;2023-07-31T06:37:42;17.02;93.67
68257;DHT22;55069;51.568;4.656;2023-07-31T06:40:09;17.10;93.88
68257;DHT22;55069;51.568;4.656;2023-07-31T06:42:35;17.11;93.38
68257;DHT22;55069;51.568;4.656;2023-07-31T06:45:02;17.13;93.49
68257;DHT22;55069;51.568;4.656;2023-07-31T06:47:28;17.14;93.62
68257;DHT22;55069;51.568;4.656;2023-07-31T06:49:53;17.11;93.46
68257;DHT22;55069;51.568;4.656;2023-07-31T06:52:19;17.06;93.51
68257;DHT22;55069;51.568;4.656;2023-07-31T06:54:59;17.03;93.90
68257;DHT22;55069;51.568;4.656;2023-07-31T06:57:25;17.03;94.10
68257;DHT22;55069;51.568;4.656;2023-07-31T06:59:50;17.07;94.01
68257;DHT22;55069;51.568;4.656;2023-07-31T07:02:16;17.13;93.78
68257;DHT22;55069;51.568;4.656;2023-07-31T07:04:41;17.14;94.07
68257;DHT22;55069;51.568;4.656;2023-07-31T07:07:07;17.16;93.65
68257;DHT22;55069;51.568;4.656;2023-07-31T07:09:32;17.16;93.30
68257;DHT22;55069;51.568;4.656;2023-07-31T07:11:58;17.26;93.62
68257;DHT22;55069;51.568;4.656;2023-07-31T07:14:23;17.26;93.52
68257;DHT22;55069;51.568;4.656;2023-07-31T07:16:52;17.26;93.15
68257;DHT22;55069;51.568;4.656;2023-07-31T07:19:17;17.23;93.33
68257;DHT22;55069;51.568;4.656;2023-07-31T07:21:45;17.26;93.53
68257;DHT22;55069;51.568;4.656;2023-07-31T07:24:10;17.32;93.42
68257;DHT22;55069;51.568;4.656;2023-07-31T07:26:36;17.26;93.16
68257;DHT22;55069;51.568;4.656;2023-07-31T07:29:01;17.28;93.27
68257;DHT22;55069;51.568;4.656;2023-07-31T07:31:28;17.37;93.33
68257;DHT22;55069;51.568;4.656;2023-07-31T07:33:53;17.35;93.22
68257;DHT22;55069;51.568;4.656;2023-07-31T07:36:19;17.28;93.39
68257;DHT22;55069;51.568;4.656;2023-07-31T07:38:45;17.28;93.29
68257;DHT22;55069;51.568;4.656;2023-07-31T07:41:10;17.31;93.53
68257;DHT22;55069;51.568;4.656;2023-07-31T07:43:36;17.30;93.13
68257;DHT22;55069;51.568;4.656;2023-07-31T07:46:01;17.35;92.82
68257;DHT22;55069;51.568;4.656;2023-07-31T07:48:27;17.44;92.42
68257;DHT22;55069;51.568;4.656;2023-07-31T07:50:52;17.48;92.63
68257;DHT22;55069;51.568;4.656;2023-07-31T07:53:18;17.41;92.59
68257;DHT22;55069;51.568;4.656;2023-07-31T07:55:43;17.44;93.01
68257;DHT22;55069;51.568;4.656;2023-07-31T07:58:09;17.42;92.71
68257;DHT22;55069;51.568;4.656;2023-07-31T08:00:34;17.42;92.93
68257;DHT22;55069;51.568;4.656;2023-07-31T08:03:00;17.47;92.73
68257;DHT22;55069;51.568;4.656;2023-07-31T08:05:25;17.39;92.64
68257;DHT22;55069;51.568;4.656;2023-07-31T08:07:51;17.32;92.85
68257;DHT22;55069;51.568;4.656;2023-07-31T08:10:16;17.34;92.87
68257;DHT22;55069;51.568;4.656;2023-07-31T08:12:42;17.32;92.64
68257;DHT22;55069;51.568;4.656;2023-07-31T08:15:08;17.26;92.87
68257;DHT22;55069;51.568;4.656;2023-07-31T08:17:33;17.32;92.29
68257;DHT22;55069;51.568;4.656;2023-07-31T08:19:59;17.44;91.85
68257;DHT22;55069;51.568;4.656;2023-07-31T08:22:24;17.54;91.72
68257;DHT22;55069;51.568;4.656;2023-07-31T08:24:51;17.55;91.83
68257;DHT22;55069;51.568;4.656;2023-07-31T08:27:16;17.62;91.51
68257;DHT22;55069;51.568;4.656;2023-07-31T08:29:41;17.69;91.38
68257;DHT22;55069;51.568;4.656;2023-07-31T08:32:07;17.79;91.18
68257;DHT22;55069;51.568;4.656;2023-07-31T08:34:33;17.82;90.66
68257;DHT22;55069;51.568;4.656;2023-07-31T08:36:58;17.95;90.63
68257;DHT22;55069;51.568;4.656;2023-07-31T08:39:24;17.97;89.91
68257;DHT22;55069;51.568;4.656;2023-07-31T08:41:49;17.99;89.59
68257;DHT22;55069;51.568;4.656;2023-07-31T08:44:15;18.12;89.91
68257;DHT22;55069;51.568;4.656;2023-07-31T08:46:42;18.20;89.99
68257;DHT22;55069;51.568;4.656;2023-07-31T08:49:07;18.22;89.82
68257;DHT22;55069;51.568;4.656;2023-07-31T08:51:34;18.29;89.51
68257;DHT22;55069;51.568;4.656;2023-07-31T08:54:01;18.37;89.28
68257;DHT22;55069;51.568;4.656;2023-07-31T08:56:27;18.61;88.87
68257;DHT22;55069;51.568;4.656;2023-07-31T08:58:54;18.58;87.94
68257;DHT22;55069;51.568;4.656;2023-07-31T09:01:20;18.68;88.30
68257;DHT22;55069;51.568;4.656;2023-07-31T09:03:47;18.73;87.82
68257;DHT22;55069;51.568;4.656;2023-07-31T09:06:13;18.61;87.71
68257;DHT22;55069;51.568;4.656;2023-07-31T09:08:40;18.62;87.49
68257;DHT22;55069;51.568;4.656;2023-07-31T09:11:07;18.64;87.13
68257;DHT22;55069;51.568;4.656;2023-07-31T09:13:33;18.81;87.36
68257;DHT22;55069;51.568;4.656;2023-07-31T09:15:58;19.03;87.18
68257;DHT22;55069;51.568;4.656;2023-07-31T09:18:24;19.24;86.11
68257;DHT22;55069;51.568;4.656;2023-07-31T09:21:07;19.36;85.67
68257;DHT22;55069;51.568;4.656;2023-07-31T09:23:43;19.33;85.75
68257;DHT22;55069;51.568;4.656;2023-07-31T09:26:10;19.47;85.64
68257;DHT22;55069;51.568;4.656;2023-07-31T09:28:36;19.46;84.75
68257;DHT22;55069;51.568;4.656;2023-07-31T09:31:01;19.60;85.23
68257;DHT22;55069;51.568;4.656;2023-07-31T09:33:27;19.46;84.89
68257;DHT22;55069;51.568;4.656;2023-07-31T09:35:52;19.39;85.68
68257;DHT22;55069;51.568;4.656;2023-07-31T09:38:18;19.12;85.37
68257;DHT22;55069;51.568;4.656;2023-07-31T09:40:46;19.02;86.05
68257;DHT22;55069;51.568;4.656;2023-07-31T09:43:14;19.09;86.27
68257;DHT22;55069;51.568;4.656;2023-07-31T09:45:43;19.08;85.60
68257;DHT22;55069;51.568;4.656;2023-07-31T09:48:11;19.22;85.36
68257;DHT22;55069;51.568;4.656;2023-07-31T09:50:38;19.27;85.42
68257;DHT22;55069;51.568;4.656;2023-07-31T09:53:05;19.33;85.43
68257;DHT22;55069;51.568;4.656;2023-07-31T09:55:31;19.20;85.61
68257;DHT22;55069;51.568;4.656;2023-07-31T09:58:03;19.40;84.98
68257;DHT22;55069;51.568;4.656;2023-07-31T10:00:30;19.27;85.71
68257;DHT22;55069;51.568;4.656;2023-07-31T10:02:58;19.36;85.26
68257;DHT22;55069;51.568;4.656;2023-07-31T10:05:30;19.20;85.31
68257;DHT22;55069;51.568;4.656;2023-07-31T10:07:57;19.39;86.19
68257;DHT22;55069;51.568;4.656;2023-07-31T10:10:22;19.51;85.10
68257;DHT22;55069;51.568;4.656;2023-07-31T10:12:49;19.63;84.95
68257;DHT22;55069;51.568;4.656;2023-07-31T10:15:18;19.60;84.36
68257;DHT22;55069;51.568;4.656;2023-07-31T10:17:43;19.71;84.73
68257;DHT22;55069;51.568;4.656;2023-07-31T10:20:10;19.86;84.31
68257;DHT22;55069;51.568;4.656;2023-07-31T10:22:36;19.66;84.47
68257;DHT22;55069;51.568;4.656;2023-07-31T10:25:02;19.68;84.53
68257;DHT22;55069;51.568;4.656;2023-07-31T10:27:27;19.60;85.35
68257;DHT22;55069;51.568;4.656;2023-07-31T10:29:55;19.67;85.09
68257;DHT22;55069;51.568;4.656;2023-07-31T10:32:22;19.46;85.28
68257;DHT22;55069;51.568;4.656;2023-07-31T10:34:50;19.43;86.21
68257;DHT22;55069;51.568;4.656;2023-07-31T10:40:11;19.46;86.63
68257;DHT22;55069;51.568;4.656;2023-07-31T10:42:45;19.41;87.63
68257;DHT22;55069;51.568;4.656;2023-07-31T10:45:10;19.41;87.76
68257;DHT22;55069;51.568;4.656;2023-07-31T10:47:43;19.47;87.51
68257;DHT22;55069;51.568;4.656;2023-07-31T10:50:20;19.08;88.65
68257;DHT22;55069;51.568;4.656;2023-07-31T10:52:51;19.05;88.97
68257;DHT22;55069;51.568;4.656;2023-07-31T10:55:31;18.94;88.65
68257;DHT22;55069;51.568;4.656;2023-07-31T10:58:10;19.13;88.83
68257;DHT22;55069;51.568;4.656;2023-07-31T11:00:45;19.34;88.42
68257;DHT22;55069;51.568;4.656;2023-07-31T11:03:13;19.41;87.88
68257;DHT22;55069;51.568;4.656;2023-07-31T11:08:30;19.33;87.85
68257;DHT22;55069;51.568;4.656;2023-07-31T11:13:33;19.43;87.77
68257;DHT22;55069;51.568;4.656;2023-07-31T11:16:00;19.49;87.58
68257;DHT22;55069;51.568;4.656;2023-07-31T11:18:26;19.46;87.40
68257;DHT22;55069;51.568;4.656;2023-07-31T11:20:53;19.45;86.94
68257;DHT22;55069;51.568;4.656;2023-07-31T11:23:19;19.51;87.06
68257;DHT22;55069;51.568;4.656;2023-07-31T11:25:45;19.63;87.43
68257;DHT22;55069;51.568;4.656;2023-07-31T11:28:15;19.68;86.40
68257;DHT22;55069;51.568;4.656;2023-07-31T11:30:42;19.73;86.61
68257;DHT22;55069;51.568;4.656;2023-07-31T11:33:09;19.91;86.04
68257;DHT22;55069;51.568;4.656;2023-07-31T11:35:44;19.94;86.03
68257;DHT22;55069;51.568;4.656;2023-07-31T11:38:11;19.92;86.23
68257;DHT22;55069;51.568;4.656;2023-07-31T11:40:42;19.95;85.59
68257;DHT22;55069;51.568;4.656;2023-07-31T11:43:07;19.96;85.20
68257;DHT22;55069;51.568;4.656;2023-07-31T11:45:33;20.08;85.16
68257;DHT22;55069;51.568;4.656;2023-07-31T11:48:00;20.08;85.26
68257;DHT22;55069;51.568;4.656;2023-07-31T11:50:26;19.98;85.17
68257;DHT22;55069;51.568;4.656;2023-07-31T11:53:00;19.82;86.69
68257;DHT22;55069;51.568;4.656;2023-07-31T11:55:27;19.79;87.11
68257;DHT22;55069;51.568;4.656;2023-07-31T11:57:55;19.67;87.47
68257;DHT22;55069;51.568;4.656;2023-07-31T12:00:21;19.56;87.59
68257;DHT22;55069;51.568;4.656;2023-07-31T12:02:47;19.53;87.82
68257;DHT22;55069;51.568;4.656;2023-07-31T12:05:13;19.56;88.00
68257;DHT22;55069;51.568;4.656;2023-07-31T12:10:11;19.51;87.89
68257;DHT22;55069;51.568;4.656;2023-07-31T12:12:37;19.82;87.68
68257;DHT22;55069;51.568;4.656;2023-07-31T12:15:02;19.81;87.41
68257;DHT22;55069;51.568;4.656;2023-07-31T12:17:28;19.95;86.94
68257;DHT22;55069;51.568;4.656;2023-07-31T12:19:54;19.88;87.26
68257;DHT22;55069;51.568;4.656;2023-07-31T12:22:20;19.88;87.72
68257;DHT22;55069;51.568;4.656;2023-07-31T12:24:46;20.01;87.49
68257;DHT22;55069;51.568;4.656;2023-07-31T12:27:13;20.13;87.35
68257;DHT22;55069;51.568;4.656;2023-07-31T12:29:39;20.16;86.97
68257;DHT22;55069;51.568;4.656;2023-07-31T12:32:22;19.99;86.92
68257;DHT22;55069;51.568;4.656;2023-07-31T12:34:48;19.95;87.20
68257;DHT22;55069;51.568;4.656;2023-07-31T12:37:13;19.82;86.97
68257;DHT22;55069;51.568;4.656;2023-07-31T12:39:39;19.77;86.92
68257;DHT22;55069;51.568;4.656;2023-07-31T12:42:05;19.64;87.56
68257;DHT22;55069;51.568;4.656;2023-07-31T12:44:30;19.61;87.98
68257;DHT22;55069;51.568;4.656;2023-07-31T12:46:56;19.64;87.39
68257;DHT22;55069;51.568;4.656;2023-07-31T12:49:21;19.58;87.44
68257;DHT22;55069;51.568;4.656;2023-07-31T12:51:47;19.57;87.69
68257;DHT22;55069;51.568;4.656;2023-07-31T12:54:12;19.51;87.79
68257;DHT22;55069;51.568;4.656;2023-07-31T12:56:38;19.54;87.89
68257;DHT22;55069;51.568;4.656;2023-07-31T12:59:03;19.58;88.06
68257;DHT22;55069;51.568;4.656;2023-07-31T13:01:29;19.56;87.69
68257;DHT22;55069;51.568;4.656;2023-07-31T13:03:54;19.66;88.40
68257;DHT22;55069;51.568;4.656;2023-07-31T13:06:20;19.60;88.11
68257;DHT22;55069;51.568;4.656;2023-07-31T13:08:45;19.41;88.60
68257;DHT22;55069;51.568;4.656;2023-07-31T13:11:12;19.40;88.91
68257;DHT22;55069;51.568;4.656;2023-07-31T13:13:38;19.31;89.39
68257;DHT22;55069;51.568;4.656;2023-07-31T13:16:03;19.39;89.75
68257;DHT22;55069;51.568;4.656;2023-07-31T13:18:29;19.37;90.15
68257;DHT22;55069;51.568;4.656;2023-07-31T13:20:55;19.36;89.98
68257;DHT22;55069;51.568;4.656;2023-07-31T13:23:20;19.34;90.00
68257;DHT22;55069;51.568;4.656;2023-07-31T13:25:46;19.24;90.11
68257;DHT22;55069;51.568;4.656;2023-07-31T13:28:11;19.33;90.76
68257;DHT22;55069;51.568;4.656;2023-07-31T13:30:37;19.36;90.15
68257;DHT22;55069;51.568;4.656;2023-07-31T13:33:02;19.54;90.07
68257;DHT22;55069;51.568;4.656;2023-07-31T13:35:28;19.58;90.22
68257;DHT22;55069;51.568;4.656;2023-07-31T13:37:56;19.64;90.39
68257;DHT22;55069;51.568;4.656;2023-07-31T13:40:22;19.56;90.34
68257;DHT22;55069;51.568;4.656;2023-07-31T13:42:48;19.63;89.57
68257;DHT22;55069;51.568;4.656;2023-07-31T13:45:14;19.57;89.96
68257;DHT22;55069;51.568;4.656;2023-07-31T13:47:42;19.54;89.81
68257;DHT22;55069;51.568;4.656;2023-07-31T13:50:08;19.61;90.00
68257;DHT22;55069;51.568;4.656;2023-07-31T13:52:34;19.67;89.99
68257;DHT22;55069;51.568;4.656;2023-07-31T13:54:59;19.53;90.39
68257;DHT22;55069;51.568;4.656;2023-07-31T13:57:25;19.47;90.48
68257;DHT22;55069;51.568;4.656;2023-07-31T13:59:50;19.57;90.20
68257;DHT22;55069;51.568;4.656;2023-07-31T14:02:16;19.70;90.17
68257;DHT22;55069;51.568;4.656;2023-07-31T14:04:41;19.70;90.30
68257;DHT22;55069;51.568;4.656;2023-07-31T14:07:07;19.70;89.98
68257;DHT22;55069;51.568;4.656;2023-07-31T14:09:32;19.61;89.82
68257;DHT22;55069;51.568;4.656;2023-07-31T14:11:58;19.66;89.90
68257;DHT22;55069;51.568;4.656;2023-07-31T14:14:23;19.73;88.96
68257;DHT22;55069;51.568;4.656;2023-07-31T14:16:49;19.63;90.06
68257;DHT22;55069;51.568;4.656;2023-07-31T14:19:14;19.56;89.46
68257;DHT22;55069;51.568;4.656;2023-07-31T14:21:40;19.41;90.20
68257;DHT22;55069;51.568;4.656;2023-07-31T14:24:05;19.36;90.70
68257;DHT22;55069;51.568;4.656;2023-07-31T14:26:31;19.36;90.84
68257;DHT22;55069;51.568;4.656;2023-07-31T14:28:56;19.22;90.75
68257;DHT22;55069;51.568;4.656;2023-07-31T14:31:23;19.16;90.65
68257;DHT22;55069;51.568;4.656;2023-07-31T14:33:48;19.15;90.96
68257;DHT22;55069;51.568;4.656;2023-07-31T14:36:14;19.20;90.98
68257;DHT22;55069;51.568;4.656;2023-07-31T14:38:39;19.16;91.38
68257;DHT22;55069;51.568;4.656;2023-07-31T14:41:05;19.15;91.03
68257;DHT22;55069;51.568;4.656;2023-07-31T14:43:30;19.09;91.49
68257;DHT22;55069;51.568;4.656;2023-07-31T14:45:56;19.08;91.51
68257;DHT22;55069;51.568;4.656;2023-07-31T14:48:24;19.03;91.70
68257;DHT22;55069;51.568;4.656;2023-07-31T14:50:50;19.00;91.69
68257;DHT22;55069;51.568;4.656;2023-07-31T14:53:15;19.02;91.42
68257;DHT22;55069;51.568;4.656;2023-07-31T14:55:41;18.96;91.60
68257;DHT22;55069;51.568;4.656;2023-07-31T14:58:06;18.96;91.74
68257;DHT22;55069;51.568;4.656;2023-07-31T15:00:32;18.82;91.83
68257;DHT22;55069;51.568;4.656;2023-07-31T15:02:57;18.84;92.05
68257;DHT22;55069;51.568;4.656;2023-07-31T15:05:23;18.79;91.61
68257;DHT22;55069;51.568;4.656;2023-07-31T15:07:48;18.84;91.82
68257;DHT22;55069;51.568;4.656;2023-07-31T15:10:14;18.78;91.91
68257;DHT22;55069;51.568;4.656;2023-07-31T15:12:40;18.71;91.93
68257;DHT22;55069;51.568;4.656;2023-07-31T15:15:07;18.71;92.31
68257;DHT22;55069;51.568;4.656;2023-07-31T15:17:33;18.61;92.34
68257;DHT22;55069;51.568;4.656;2023-07-31T15:19:59;18.55;92.43
68257;DHT22;55069;51.568;4.656;2023-07-31T15:22:25;18.54;92.39
68257;DHT22;55069;51.568;4.656;2023-07-31T15:24:51;18.54;92.39
68257;DHT22;55069;51.568;4.656;2023-07-31T15:27:17;18.52;92.75
68257;DHT22;55069;51.568;4.656;2023-07-31T15:29:42;18.48;92.82
68257;DHT22;55069;51.568;4.656;2023-07-31T15:32:08;18.48;93.02
68257;DHT22;55069;51.568;4.656;2023-07-31T15:34:34;18.51;92.42
68257;DHT22;55069;51.568;4.656;2023-07-31T15:36:59;18.45;92.82
68257;DHT22;55069;51.568;4.656;2023-07-31T15:39:25;18.48;92.75
68257;DHT22;55069;51.568;4.656;2023-07-31T15:41:50;18.43;92.66